sensor_id;sensor_type;location;lat;lon;timestamp;temperature;humidity
19868;DHT22;10096;51.112;6.776;2022-07-06T00:00:18;16.60;99.90
19868;DHT22;10096;51.112;6.776;2022-07-06T00:02:45;16.70;99.90
19868;DHT22;10096;51.112;6.776;2022-07-06T00:05:12;16.60;99.90
19868;DHT22;10096;51.112;6.776;2022-07-06T00:07:40;16.50;99.90
19868;DHT22;10096;51.112;6.776;2022-07-06T00:10:07;16.50;99.90
19868;DHT22;10096;51.112;6.776;2022-07-06T00:12:34;16.50;99.90
19868;DHT22;10096;51.112;6.776;2022-07-06T00:15:01;16.50;99.90
19868;DHT22;10096;51.112;6.776;2022-07-06T00:17:28;16.50;99.90
19868;DHT22;10096;51.112;6.776;2022-07-06T00:19:55;16.40;99.90
19868;DHT22;10096;51.112;6.776;2022-07-06T00:22:22;16.40;99.90
19868;DHT22;10096;51.112;6.776;2022-07-06T00:24:50;16.50;99.90
19868;DHT22;10096;51.112;6.776;2022-07-06T00:27:17;16.50;99.90
19868;DHT22;10096;51.112;6.776;2022-07-06T00:29:45;16.20;99.90
19868;DHT22;10096;51.112;6.776;2022-07-06T00:32:12;16.30;99.90
19868;DHT22;10096;51.112;6.776;2022-07-06T00:34:39;16.40;99.90
19868;DHT22;10096;51.112;6.776;2022-07-06T00:37:06;16.20;99.90
19868;DHT22;10096;51.112;6.776;2022-07-06T00:39:33;16.10;99.90
19868;DHT22;10096;51.112;6.776;2022-07-06T00:42:02;16.10;99.90
19868;DHT22;10096;51.112;6.776;2022-07-06T00:44:29;16.20;99.90
19868;DHT22;10096;51.112;6.776;2022-07-06T00:47:02;16.40;99.90
19868;DHT22;10096;51.112;6.776;2022-07-06T00:49:29;16.10;99.90
19868;DHT22;10096;51.112;6.776;2022-07-06T00:52:13;16.00;99.90
19868;DHT22;10096;51.112;6.776;2022-07-06T00:54:41;16.00;99.90
19868;DHT22;10096;51.112;6.776;2022-07-06T00:57:11;16.00;99.90
19868;DHT22;10096;51.112;6.776;2022-07-06T00:59:38;15.90;99.90
19868;DHT22;10096;51.112;6.776;2022-07-06T01:02:05;16.10;99.90
19868;DHT22;10096;51.112;6.776;2022-07-06T01:04:33;16.20;99.90
19868;DHT22;10096;51.112;6.776;2022-07-06T01:07:00;16.00;99.90
19868;DHT22;10096;51.112;6.776;2022-07-06T01:09:28;15.80;99.90
19868;DHT22;10096;51.112;6.776;2022-07-06T01:11:54;15.60;99.90
19868;DHT22;10096;51.112;6.776;2022-07-06T01:14:23;15.70;99.90
19868;DHT22;10096;51.112;6.776;2022-07-06T01:16:50;15.90;99.90
19868;DHT22;10096;51.112;6.776;2022-07-06T01:19:17;15.70;99.90
19868;DHT22;10096;51.112;6.776;2022-07-06T01:21:46;15.90;99.90
19868;DHT22;10096;51.112;6.776;2022-07-06T01:24:13;15.80;99.90
19868;DHT22;10096;51.112;6.776;2022-07-06T01:26:40;15.80;99.90
19868;DHT22;10096;51.112;6.776;2022-07-06T01:29:07;15.70;99.90
19868;DHT22;10096;51.112;6.776;2022-07-06T01:31:33;15.70;99.90
19868;DHT22;10096;51.112;6.776;2022-07-06T01:34:00;15.70;99.90
19868;DHT22;10096;51.112;6.776;2022-07-06T01:36:27;15.60;99.90
19868;DHT22;10096;51.112;6.776;2022-07-06T01:38:56;15.50;99.90
19868;DHT22;10096;51.112;6.776;2022-07-06T01:41:24;15.50;99.90
19868;DHT22;10096;51.112;6.776;2022-07-06T01:43:52;15.60;99.90
19868;DHT22;10096;51.112;6.776;2022-07-06T01:46:19;15.30;99.90
19868;DHT22;10096;51.112;6.776;2022-07-06T01:48:46;15.20;99.90
19868;DHT22;10096;51.112;6.776;2022-07-06T01:51:13;15.30;99.90
19868;DHT22;10096;51.112;6.776;2022-07-06T01:53:40;15.10;99.90
19868;DHT22;10096;51.112;6.776;2022-07-06T01:56:09;15.20;99.90
19868;DHT22;10096;51.112;6.776;2022-07-06T01:58:37;14.90;1.00
19868;DHT22;10096;51.112;6.776;2022-07-06T02:01:07;15.00;1.00
19868;DHT22;10096;51.112;6.776;2022-07-06T02:03:35;15.00;1.00
19868;DHT22;10096;51.112;6.776;2022-07-06T02:06:02;15.10;1.00
19868;DHT22;10096;51.112;6.776;2022-07-06T02:08:29;15.00;1.00
19868;DHT22;10096;51.112;6.776;2022-07-06T02:10:56;15.00;1.00
19868;DHT22;10096;51.112;6.776;2022-07-06T02:13:25;14.90;1.00
19868;DHT22;10096;51.112;6.776;2022-07-06T02:15:52;14.90;1.00
19868;DHT22;10096;51.112;6.776;2022-07-06T02:18:19;15.00;1.00
19868;DHT22;10096;51.112;6.776;2022-07-06T02:20:45;15.00;1.00
19868;DHT22;10096;51.112;6.776;2022-07-06T02:23:13;14.90;1.00
19868;DHT22;10096;51.112;6.776;2022-07-06T02:25:39;15.00;1.00
19868;DHT22;10096;51.112;6.776;2022-07-06T02:28:06;14.90;1.00
19868;DHT22;10096;51.112;6.776;2022-07-06T02:30:35;14.90;1.00
19868;DHT22;10096;51.112;6.776;2022-07-06T02:33:03;14.90;1.00
19868;DHT22;10096;51.112;6.776;2022-07-06T02:35:29;14.80;1.00
19868;DHT22;10096;51.112;6.776;2022-07-06T02:37:56;14.80;1.00
19868;DHT22;10096;51.112;6.776;2022-07-06T02:40:24;14.80;1.00
19868;DHT22;10096;51.112;6.776;2022-07-06T02:42:53;14.80;1.00
19868;DHT22;10096;51.112;6.776;2022-07-06T02:45:20;14.80;1.00
19868;DHT22;10096;51.112;6.776;2022-07-06T02:47:51;14.80;1.00
19868;DHT22;10096;51.112;6.776;2022-07-06T02:50:18;15.00;1.00
19868;DHT22;10096;51.112;6.776;2022-07-06T02:52:45;14.70;1.00
19868;DHT22;10096;51.112;6.776;2022-07-06T02:55:12;14.90;1.00
19868;DHT22;10096;51.112;6.776;2022-07-06T02:57:39;14.80;1.00
19868;DHT22;10096;51.112;6.776;2022-07-06T03:00:07;14.60;1.00
19868;DHT22;10096;51.112;6.776;2022-07-06T03:02:34;14.70;1.00
19868;DHT22;10096;51.112;6.776;2022-07-06T03:05:08;14.80;1.00
19868;DHT22;10096;51.112;6.776;2022-07-06T03:07:37;14.70;1.00
19868;DHT22;10096;51.112;6.776;2022-07-06T03:10:05;14.60;1.00
19868;DHT22;10096;51.112;6.776;2022-07-06T03:12:32;14.70;1.00
19868;DHT22;10096;51.112;6.776;2022-07-06T03:14:59;14.70;1.00
19868;DHT22;10096;51.112;6.776;2022-07-06T03:17:26;14.70;1.00
19868;DHT22;10096;51.112;6.776;2022-07-06T03:19:53;14.60;1.00
19868;DHT22;10096;51.112;6.776;2022-07-06T03:22:24;14.50;1.00
19868;DHT22;10096;51.112;6.776;2022-07-06T03:24:51;14.50;1.00
19868;DHT22;10096;51.112;6.776;2022-07-06T03:27:24;14.40;1.00
19868;DHT22;10096;51.112;6.776;2022-07-06T03:29:53;14.50;1.00
19868;DHT22;10096;51.112;6.776;2022-07-06T03:32:20;14.30;1.00
19868;DHT22;10096;51.112;6.776;2022-07-06T03:34:49;14.30;1.00
19868;DHT22;10096;51.112;6.776;2022-07-06T03:37:15;14.30;1.00
19868;DHT22;10096;51.112;6.776;2022-07-06T03:39:44;14.50;1.00
19868;DHT22;10096;51.112;6.776;2022-07-06T03:42:11;14.40;1.00
19868;DHT22;10096;51.112;6.776;2022-07-06T03:44:44;14.30;1.00
19868;DHT22;10096;51.112;6.776;2022-07-06T03:47:11;14.30;1.00
19868;DHT22;10096;51.112;6.776;2022-07-06T03:49:41;14.30;1.00
19868;DHT22;10096;51.112;6.776;2022-07-06T03:52:10;14.30;1.00
19868;DHT22;10096;51.112;6.776;2022-07-06T03:54:37;14.30;1.00
19868;DHT22;10096;51.112;6.776;2022-07-06T03:57:06;14.30;1.00
19868;DHT22;10096;51.112;6.776;2022-07-06T03:59:33;14.60;1.00
19868;DHT22;10096;51.112;6.776;2022-07-06T04:02:01;14.60;1.00
19868;DHT22;10096;51.112;6.776;2022-07-06T04:04:35;15.00;1.00
19868;DHT22;10096;51.112;6.776;2022-07-06T04:07:05;15.40;1.00
19868;DHT22;10096;51.112;6.776;2022-07-06T04:09:31;16.00;1.00
19868;DHT22;10096;51.112;6.776;2022-07-06T04:11:58;16.90;99.90
19868;DHT22;10096;51.112;6.776;2022-07-06T04:14:27;17.80;99.90
19868;DHT22;10096;51.112;6.776;2022-07-06T04:16:54;18.20;99.90
19868;DHT22;10096;51.112;6.776;2022-07-06T04:19:21;18.70;99.90
19868;DHT22;10096;51.112;6.776;2022-07-06T04:21:49;19.00;99.90
19868;DHT22;10096;51.112;6.776;2022-07-06T04:24:20;19.50;99.90
19868;DHT22;10096;51.112;6.776;2022-07-06T04:26:48;20.00;99.90
19868;DHT22;10096;51.112;6.776;2022-07-06T04:29:15;20.10;99.90
19868;DHT22;10096;51.112;6.776;2022-07-06T04:31:48;19.70;99.90
19868;DHT22;10096;51.112;6.776;2022-07-06T04:34:16;19.80;99.90
19868;DHT22;10096;51.112;6.776;2022-07-06T04:36:44;20.40;99.90
19868;DHT22;10096;51.112;6.776;2022-07-06T04:39:13;20.70;99.90
19868;DHT22;10096;51.112;6.776;2022-07-06T04:41:45;20.70;99.90
19868;DHT22;10096;51.112;6.776;2022-07-06T04:44:17;21.60;99.90
19868;DHT22;10096;51.112;6.776;2022-07-06T04:46:49;22.00;99.90
19868;DHT22;10096;51.112;6.776;2022-07-06T04:49:21;23.00;99.90
19868;DHT22;10096;51.112;6.776;2022-07-06T04:51:51;23.30;99.90
19868;DHT22;10096;51.112;6.776;2022-07-06T04:54:18;21.90;99.90
19868;DHT22;10096;51.112;6.776;2022-07-06T04:56:48;21.00;99.90
19868;DHT22;10096;51.112;6.776;2022-07-06T04:59:18;20.20;99.90
19868;DHT22;10096;51.112;6.776;2022-07-06T05:01:49;19.40;99.90
19868;DHT22;10096;51.112;6.776;2022-07-06T05:04:16;19.30;99.90
19868;DHT22;10096;51.112;6.776;2022-07-06T05:06:43;19.10;99.90
19868;DHT22;10096;51.112;6.776;2022-07-06T05:09:11;18.90;99.90
19868;DHT22;10096;51.112;6.776;2022-07-06T05:11:38;19.30;99.90
19868;DHT22;10096;51.112;6.776;2022-07-06T05:14:06;19.50;99.90
19868;DHT22;10096;51.112;6.776;2022-07-06T05:16:34;19.70;99.90
19868;DHT22;10096;51.112;6.776;2022-07-06T05:19:05;19.40;99.90
19868;DHT22;10096;51.112;6.776;2022-07-06T05:21:32;19.20;99.90
19868;DHT22;10096;51.112;6.776;2022-07-06T05:23:59;19.10;99.90
19868;DHT22;10096;51.112;6.776;2022-07-06T05:26:28;19.00;99.90
19868;DHT22;10096;51.112;6.776;2022-07-06T05:28:55;19.10;99.90
19868;DHT22;10096;51.112;6.776;2022-07-06T05:31:22;19.70;99.90
19868;DHT22;10096;51.112;6.776;2022-07-06T05:33:49;19.80;99.90
19868;DHT22;10096;51.112;6.776;2022-07-06T05:36:20;19.80;99.90
19868;DHT22;10096;51.112;6.776;2022-07-06T05:38:47;20.10;99.90
19868;DHT22;10096;51.112;6.776;2022-07-06T05:41:14;19.90;99.90
19868;DHT22;10096;51.112;6.776;2022-07-06T05:43:41;19.90;99.90
19868;DHT22;10096;51.112;6.776;2022-07-06T05:46:08;19.70;99.90
19868;DHT22;10096;51.112;6.776;2022-07-06T05:48:35;19.80;99.90
19868;DHT22;10096;51.112;6.776;2022-07-06T05:51:18;20.10;99.90
19868;DHT22;10096;51.112;6.776;2022-07-06T05:53:46;20.00;99.90
19868;DHT22;10096;51.112;6.776;2022-07-06T05:56:13;20.80;99.90
19868;DHT22;10096;51.112;6.776;2022-07-06T05:58:40;23.20;99.90
19868;DHT22;10096;51.112;6.776;2022-07-06T06:01:07;24.70;99.90
19868;DHT22;10096;51.112;6.776;2022-07-06T06:03:37;25.50;99.90
19868;DHT22;10096;51.112;6.776;2022-07-06T06:06:05;26.80;99.90
19868;DHT22;10096;51.112;6.776;2022-07-06T06:08:33;27.80;99.90
19868;DHT22;10096;51.112;6.776;2022-07-06T06:11:00;28.50;99.90
19868;DHT22;10096;51.112;6.776;2022-07-06T06:13:28;28.80;99.90
19868;DHT22;10096;51.112;6.776;2022-07-06T06:15:54;28.80;99.90
19868;DHT22;10096;51.112;6.776;2022-07-06T06:18:21;28.60;99.90
19868;DHT22;10096;51.112;6.776;2022-07-06T06:20:51;29.20;99.90
19868;DHT22;10096;51.112;6.776;2022-07-06T06:23:18;30.20;99.90
19868;DHT22;10096;51.112;6.776;2022-07-06T06:25:51;30.40;99.90
19868;DHT22;10096;51.112;6.776;2022-07-06T06:28:18;29.50;99.90
19868;DHT22;10096;51.112;6.776;2022-07-06T06:30:45;28.80;99.90
19868;DHT22;10096;51.112;6.776;2022-07-06T06:33:13;28.30;99.90
19868;DHT22;10096;51.112;6.776;2022-07-06T06:35:43;27.40;99.90
19868;DHT22;10096;51.112;6.776;2022-07-06T06:38:10;26.20;99.90
19868;DHT22;10096;51.112;6.776;2022-07-06T06:40:37;25.40;99.90
19868;DHT22;10096;51.112;6.776;2022-07-06T06:43:06;24.70;99.90
19868;DHT22;10096;51.112;6.776;2022-07-06T06:45:33;24.30;99.90
19868;DHT22;10096;51.112;6.776;2022-07-06T06:48:00;23.90;99.90
19868;DHT22;10096;51.112;6.776;2022-07-06T06:50:29;23.50;99.90
19868;DHT22;10096;51.112;6.776;2022-07-06T06:52:56;23.20;99.90
19868;DHT22;10096;51.112;6.776;2022-07-06T06:55:23;22.90;99.90
19868;DHT22;10096;51.112;6.776;2022-07-06T06:57:50;22.80;99.90
19868;DHT22;10096;51.112;6.776;2022-07-06T07:00:19;22.60;99.90
19868;DHT22;10096;51.112;6.776;2022-07-06T07:02:47;22.60;99.90
19868;DHT22;10096;51.112;6.776;2022-07-06T07:05:14;22.40;99.90
19868;DHT22;10096;51.112;6.776;2022-07-06T07:07:41;22.20;99.90
19868;DHT22;10096;51.112;6.776;2022-07-06T07:10:09;22.00;99.90
19868;DHT22;10096;51.112;6.776;2022-07-06T07:12:42;21.80;99.90
19868;DHT22;10096;51.112;6.776;2022-07-06T07:15:09;21.80;99.90
19868;DHT22;10096;51.112;6.776;2022-07-06T07:17:38;21.90;99.90
19868;DHT22;10096;51.112;6.776;2022-07-06T07:20:07;22.00;99.90
19868;DHT22;10096;51.112;6.776;2022-07-06T07:22:34;22.10;99.90
19868;DHT22;10096;51.112;6.776;2022-07-06T07:25:01;22.10;99.90
19868;DHT22;10096;51.112;6.776;2022-07-06T07:27:28;22.30;99.90
19868;DHT22;10096;51.112;6.776;2022-07-06T07:29:54;22.60;99.90
19868;DHT22;10096;51.112;6.776;2022-07-06T07:32:21;22.70;99.90
19868;DHT22;10096;51.112;6.776;2022-07-06T07:34:50;22.90;99.90
19868;DHT22;10096;51.112;6.776;2022-07-06T07:37:18;22.30;99.90
19868;DHT22;10096;51.112;6.776;2022-07-06T07:39:47;22.10;99.90
19868;DHT22;10096;51.112;6.776;2022-07-06T07:42:14;22.70;99.90
19868;DHT22;10096;51.112;6.776;2022-07-06T07:44:41;22.60;99.90
19868;DHT22;10096;51.112;6.776;2022-07-06T07:47:08;22.80;99.90
19868;DHT22;10096;51.112;6.776;2022-07-06T07:49:35;23.20;99.90
19868;DHT22;10096;51.112;6.776;2022-07-06T07:52:04;23.30;99.90
19868;DHT22;10096;51.112;6.776;2022-07-06T07:54:32;23.30;99.90
19868;DHT22;10096;51.112;6.776;2022-07-06T07:56:59;23.80;99.90
19868;DHT22;10096;51.112;6.776;2022-07-06T07:59:27;24.10;99.90
19868;DHT22;10096;51.112;6.776;2022-07-06T08:01:55;24.90;99.90
19868;DHT22;10096;51.112;6.776;2022-07-06T08:04:23;24.90;99.90
19868;DHT22;10096;51.112;6.776;2022-07-06T08:06:50;24.60;99.90
19868;DHT22;10096;51.112;6.776;2022-07-06T08:09:21;24.00;99.90
19868;DHT22;10096;51.112;6.776;2022-07-06T08:11:48;24.90;99.90
19868;DHT22;10096;51.112;6.776;2022-07-06T08:14:16;25.00;99.90
19868;DHT22;10096;51.112;6.776;2022-07-06T08:16:57;24.70;99.90
19868;DHT22;10096;51.112;6.776;2022-07-06T08:19:24;24.50;99.90
19868;DHT22;10096;51.112;6.776;2022-07-06T08:21:59;24.30;99.90
19868;DHT22;10096;51.112;6.776;2022-07-06T08:24:34;24.30;99.90
19868;DHT22;10096;51.112;6.776;2022-07-06T08:27:02;24.30;99.90
19868;DHT22;10096;51.112;6.776;2022-07-06T08:29:29;24.10;99.90
19868;DHT22;10096;51.112;6.776;2022-07-06T08:31:58;23.60;99.90
19868;DHT22;10096;51.112;6.776;2022-07-06T08:34:25;23.70;99.90
19868;DHT22;10096;51.112;6.776;2022-07-06T08:36:52;23.60;99.90
19868;DHT22;10096;51.112;6.776;2022-07-06T08:39:20;23.70;99.90
19868;DHT22;10096;51.112;6.776;2022-07-06T08:41:50;23.70;99.90
19868;DHT22;10096;51.112;6.776;2022-07-06T08:44:19;23.70;99.90
19868;DHT22;10096;51.112;6.776;2022-07-06T08:46:49;23.70;99.90
19868;DHT22;10096;51.112;6.776;2022-07-06T08:49:18;24.00;99.90
19868;DHT22;10096;51.112;6.776;2022-07-06T08:51:46;23.90;99.90
19868;DHT22;10096;51.112;6.776;2022-07-06T08:54:14;23.50;99.90
19868;DHT22;10096;51.112;6.776;2022-07-06T08:56:53;23.40;99.90
19868;DHT22;10096;51.112;6.776;2022-07-06T08:59:25;23.10;99.90
19868;DHT22;10096;51.112;6.776;2022-07-06T09:01:54;22.90;99.90
19868;DHT22;10096;51.112;6.776;2022-07-06T09:04:22;22.80;99.90
19868;DHT22;10096;51.112;6.776;2022-07-06T09:06:50;23.00;99.90
19868;DHT22;10096;51.112;6.776;2022-07-06T09:09:19;22.70;99.90
19868;DHT22;10096;51.112;6.776;2022-07-06T09:11:52;22.60;99.90
19868;DHT22;10096;51.112;6.776;2022-07-06T09:14:19;23.00;99.90
19868;DHT22;10096;51.112;6.776;2022-07-06T09:16:52;23.10;99.90
19868;DHT22;10096;51.112;6.776;2022-07-06T09:19:27;23.20;99.90
19868;DHT22;10096;51.112;6.776;2022-07-06T09:21:54;23.30;99.90
19868;DHT22;10096;51.112;6.776;2022-07-06T09:24:21;23.10;99.90
19868;DHT22;10096;51.112;6.776;2022-07-06T09:26:48;23.10;99.90
19868;DHT22;10096;51.112;6.776;2022-07-06T09:29:16;22.90;99.90
19868;DHT22;10096;51.112;6.776;2022-07-06T09:31:55;22.90;99.90
19868;DHT22;10096;51.112;6.776;2022-07-06T09:34:23;22.50;99.90
19868;DHT22;10096;51.112;6.776;2022-07-06T09:36:52;22.50;99.90
19868;DHT22;10096;51.112;6.776;2022-07-06T09:39:23;22.30;99.90
19868;DHT22;10096;51.112;6.776;2022-07-06T09:41:52;22.30;99.90
19868;DHT22;10096;51.112;6.776;2022-07-06T09:44:27;22.20;99.90
19868;DHT22;10096;51.112;6.776;2022-07-06T09:46:56;22.30;99.90
19868;DHT22;10096;51.112;6.776;2022-07-06T09:49:24;22.50;99.90
19868;DHT22;10096;51.112;6.776;2022-07-06T09:51:54;22.60;99.90
19868;DHT22;10096;51.112;6.776;2022-07-06T09:54:21;22.50;99.90
19868;DHT22;10096;51.112;6.776;2022-07-06T09:56:50;22.50;99.90
19868;DHT22;10096;51.112;6.776;2022-07-06T09:59:18;22.60;99.90
19868;DHT22;10096;51.112;6.776;2022-07-06T10:02:02;22.70;99.90
19868;DHT22;10096;51.112;6.776;2022-07-06T10:04:32;22.60;99.90
19868;DHT22;10096;51.112;6.776;2022-07-06T10:07:00;23.30;99.90
19868;DHT22;10096;51.112;6.776;2022-07-06T10:09:28;23.70;99.90
19868;DHT22;10096;51.112;6.776;2022-07-06T10:11:57;24.00;99.90
19868;DHT22;10096;51.112;6.776;2022-07-06T10:14:28;24.00;99.90
19868;DHT22;10096;51.112;6.776;2022-07-06T10:17:03;23.80;99.90
19868;DHT22;10096;51.112;6.776;2022-07-06T10:19:31;23.90;99.90
19868;DHT22;10096;51.112;6.776;2022-07-06T10:22:00;23.80;99.90
19868;DHT22;10096;51.112;6.776;2022-07-06T10:24:27;23.40;99.90
19868;DHT22;10096;51.112;6.776;2022-07-06T10:26:55;23.90;99.90
19868;DHT22;10096;51.112;6.776;2022-07-06T10:29:24;24.10;99.90
19868;DHT22;10096;51.112;6.776;2022-07-06T10:31:52;23.80;99.90
19868;DHT22;10096;51.112;6.776;2022-07-06T10:34:36;24.10;99.90
19868;DHT22;10096;51.112;6.776;2022-07-06T10:37:04;24.40;99.90
19868;DHT22;10096;51.112;6.776;2022-07-06T10:39:32;24.30;99.90
19868;DHT22;10096;51.112;6.776;2022-07-06T10:42:38;24.50;99.90
19868;DHT22;10096;51.112;6.776;2022-07-06T10:45:06;25.30;99.90
19868;DHT22;10096;51.112;6.776;2022-07-06T10:47:35;25.70;99.90
19868;DHT22;10096;51.112;6.776;2022-07-06T10:50:04;25.70;99.90
19868;DHT22;10096;51.112;6.776;2022-07-06T10:52:51;25.60;99.90
19868;DHT22;10096;51.112;6.776;2022-07-06T10:55:29;25.50;99.90
19868;DHT22;10096;51.112;6.776;2022-07-06T10:57:56;25.30;99.90
19868;DHT22;10096;51.112;6.776;2022-07-06T11:00:23;25.30;99.90
19868;DHT22;10096;51.112;6.776;2022-07-06T11:02:50;25.60;99.90
19868;DHT22;10096;51.112;6.776;2022-07-06T11:05:42;26.10;99.90
19868;DHT22;10096;51.112;6.776;2022-07-06T11:08:10;25.60;99.90
19868;DHT22;10096;51.112;6.776;2022-07-06T11:10:46;25.60;99.90
19868;DHT22;10096;51.112;6.776;2022-07-06T11:13:25;25.60;99.90
19868;DHT22;10096;51.112;6.776;2022-07-06T11:16:00;25.50;99.90
19868;DHT22;10096;51.112;6.776;2022-07-06T11:18:32;25.50;99.90
19868;DHT22;10096;51.112;6.776;2022-07-06T11:21:17;24.80;99.90
19868;DHT22;10096;51.112;6.776;2022-07-06T11:23:46;25.10;99.90
19868;DHT22;10096;51.112;6.776;2022-07-06T11:26:13;25.00;99.90
19868;DHT22;10096;51.112;6.776;2022-07-06T11:28:41;25.60;99.90
19868;DHT22;10096;51.112;6.776;2022-07-06T11:31:10;25.90;99.90
19868;DHT22;10096;51.112;6.776;2022-07-06T11:36:56;26.60;99.90
19868;DHT22;10096;51.112;6.776;2022-07-06T11:40:05;26.80;99.90
19868;DHT22;10096;51.112;6.776;2022-07-06T11:45:57;26.20;99.90
19868;DHT22;10096;51.112;6.776;2022-07-06T11:48:24;25.90;99.90
19868;DHT22;10096;51.112;6.776;2022-07-06T11:50:58;26.20;99.90
19868;DHT22;10096;51.112;6.776;2022-07-06T11:53:35;26.50;99.90
19868;DHT22;10096;51.112;6.776;2022-07-06T11:56:02;26.30;99.90
19868;DHT22;10096;51.112;6.776;2022-07-06T11:58:31;25.70;99.90
19868;DHT22;10096;51.112;6.776;2022-07-06T12:01:05;25.40;99.90
19868;DHT22;10096;51.112;6.776;2022-07-06T12:03:33;25.70;99.90
19868;DHT22;10096;51.112;6.776;2022-07-06T12:06:00;25.60;99.90
19868;DHT22;10096;51.112;6.776;2022-07-06T12:08:27;25.50;99.90
19868;DHT22;10096;51.112;6.776;2022-07-06T12:10:56;25.10;99.90
19868;DHT22;10096;51.112;6.776;2022-07-06T12:13:23;25.50;99.90
19868;DHT22;10096;51.112;6.776;2022-07-06T12:15:50;25.50;99.90
19868;DHT22;10096;51.112;6.776;2022-07-06T12:18:17;25.70;99.90
19868;DHT22;10096;51.112;6.776;2022-07-06T12:20:44;25.60;99.90
19868;DHT22;10096;51.112;6.776;2022-07-06T12:23:11;25.90;99.90
19868;DHT22;10096;51.112;6.776;2022-07-06T12:25:38;25.90;99.90
19868;DHT22;10096;51.112;6.776;2022-07-06T12:28:22;25.80;99.90
19868;DHT22;10096;51.112;6.776;2022-07-06T12:30:50;25.70;99.90
19868;DHT22;10096;51.112;6.776;2022-07-06T12:33:17;25.90;99.90
19868;DHT22;10096;51.112;6.776;2022-07-06T12:35:45;25.90;99.90
19868;DHT22;10096;51.112;6.776;2022-07-06T12:38:12;25.90;99.90
19868;DHT22;10096;51.112;6.776;2022-07-06T12:40:40;26.20;99.90
19868;DHT22;10096;51.112;6.776;2022-07-06T12:43:09;26.00;99.90
19868;DHT22;10096;51.112;6.776;2022-07-06T12:45:37;26.10;99.90
19868;DHT22;10096;51.112;6.776;2022-07-06T12:48:08;26.10;99.90
19868;DHT22;10096;51.112;6.776;2022-07-06T12:50:38;26.30;99.90
19868;DHT22;10096;51.112;6.776;2022-07-06T12:53:23;26.20;99.90
19868;DHT22;10096;51.112;6.776;2022-07-06T12:56:08;26.00;99.90
19868;DHT22;10096;51.112;6.776;2022-07-06T12:58:36;25.50;99.90
19868;DHT22;10096;51.112;6.776;2022-07-06T13:01:03;25.60;99.90
19868;DHT22;10096;51.112;6.776;2022-07-06T13:03:40;26.20;99.90
19868;DHT22;10096;51.112;6.776;2022-07-06T13:06:07;26.10;99.90
19868;DHT22;10096;51.112;6.776;2022-07-06T13:08:34;26.40;99.90
19868;DHT22;10096;51.112;6.776;2022-07-06T13:11:02;26.00;99.90
19868;DHT22;10096;51.112;6.776;2022-07-06T13:13:55;25.50;99.90
19868;DHT22;10096;51.112;6.776;2022-07-06T13:16:22;25.10;99.90
19868;DHT22;10096;51.112;6.776;2022-07-06T13:18:55;25.40;99.90
19868;DHT22;10096;51.112;6.776;2022-07-06T13:21:22;25.80;99.90
19868;DHT22;10096;51.112;6.776;2022-07-06T13:23:51;25.60;99.90
19868;DHT22;10096;51.112;6.776;2022-07-06T13:26:18;25.70;99.90
19868;DHT22;10096;51.112;6.776;2022-07-06T13:28:45;25.80;99.90
19868;DHT22;10096;51.112;6.776;2022-07-06T13:31:13;25.70;99.90
19868;DHT22;10096;51.112;6.776;2022-07-06T13:33:41;25.90;99.90
19868;DHT22;10096;51.112;6.776;2022-07-06T13:36:08;25.80;99.90
19868;DHT22;10096;51.112;6.776;2022-07-06T13:38:35;25.90;99.90
19868;DHT22;10096;51.112;6.776;2022-07-06T13:41:02;25.90;99.90
19868;DHT22;10096;51.112;6.776;2022-07-06T13:43:42;25.00;99.90
19868;DHT22;10096;51.112;6.776;2022-07-06T13:46:32;25.30;99.90
19868;DHT22;10096;51.112;6.776;2022-07-06T13:49:00;25.30;99.90
19868;DHT22;10096;51.112;6.776;2022-07-06T13:51:27;24.90;99.90
19868;DHT22;10096;51.112;6.776;2022-07-06T13:53:58;25.30;99.90
19868;DHT22;10096;51.112;6.776;2022-07-06T13:56:26;25.30;99.90
19868;DHT22;10096;51.112;6.776;2022-07-06T13:58:53;25.10;99.90
19868;DHT22;10096;51.112;6.776;2022-07-06T14:01:20;25.30;99.90
19868;DHT22;10096;51.112;6.776;2022-07-06T14:03:49;25.30;99.90
19868;DHT22;10096;51.112;6.776;2022-07-06T14:06:16;25.40;99.90
19868;DHT22;10096;51.112;6.776;2022-07-06T14:08:48;25.50;99.90
19868;DHT22;10096;51.112;6.776;2022-07-06T14:11:15;25.30;99.90
19868;DHT22;10096;51.112;6.776;2022-07-06T14:13:46;25.40;99.90
19868;DHT22;10096;51.112;6.776;2022-07-06T14:16:14;25.50;99.90
19868;DHT22;10096;51.112;6.776;2022-07-06T14:18:44;25.60;99.90
19868;DHT22;10096;51.112;6.776;2022-07-06T14:21:13;25.70;99.90
19868;DHT22;10096;51.112;6.776;2022-07-06T14:23:40;26.00;99.90
19868;DHT22;10096;51.112;6.776;2022-07-06T14:26:07;25.80;99.90
19868;DHT22;10096;51.112;6.776;2022-07-06T14:28:39;25.90;99.90
19868;DHT22;10096;51.112;6.776;2022-07-06T14:31:08;25.90;99.90
19868;DHT22;10096;51.112;6.776;2022-07-06T14:33:37;25.90;99.90
19868;DHT22;10096;51.112;6.776;2022-07-06T14:36:05;25.90;99.90
19868;DHT22;10096;51.112;6.776;2022-07-06T14:38:33;25.80;99.90
19868;DHT22;10096;51.112;6.776;2022-07-06T14:41:18;25.70;99.90
19868;DHT22;10096;51.112;6.776;2022-07-06T14:43:46;25.80;99.90
19868;DHT22;10096;51.112;6.776;2022-07-06T14:46:19;25.90;99.90
19868;DHT22;10096;51.112;6.776;2022-07-06T14:48:50;25.80;99.90
19868;DHT22;10096;51.112;6.776;2022-07-06T14:51:20;25.70;99.90
19868;DHT22;10096;51.112;6.776;2022-07-06T14:53:51;25.40;99.90
19868;DHT22;10096;51.112;6.776;2022-07-06T14:56:20;25.30;99.90
19868;DHT22;10096;51.112;6.776;2022-07-06T14:58:47;25.50;99.90
19868;DHT22;10096;51.112;6.776;2022-07-06T15:01:15;25.40;99.90
19868;DHT22;10096;51.112;6.776;2022-07-06T15:03:44;25.10;99.90
19868;DHT22;10096;51.112;6.776;2022-07-06T15:06:11;25.20;99.90
19868;DHT22;10096;51.112;6.776;2022-07-06T15:08:39;25.30;99.90
19868;DHT22;10096;51.112;6.776;2022-07-06T15:11:10;25.20;99.90
19868;DHT22;10096;51.112;6.776;2022-07-06T15:13:36;25.00;99.90
19868;DHT22;10096;51.112;6.776;2022-07-06T15:16:10;25.10;99.90
19868;DHT22;10096;51.112;6.776;2022-07-06T15:18:37;25.50;99.90
19868;DHT22;10096;51.112;6.776;2022-07-06T15:21:03;25.10;99.90
19868;DHT22;10096;51.112;6.776;2022-07-06T15:23:30;25.20;99.90
19868;DHT22;10096;51.112;6.776;2022-07-06T15:25:57;25.00;99.90
19868;DHT22;10096;51.112;6.776;2022-07-06T15:28:26;25.00;99.90
19868;DHT22;10096;51.112;6.776;2022-07-06T15:30:53;25.30;99.90
19868;DHT22;10096;51.112;6.776;2022-07-06T15:33:20;25.40;99.90
19868;DHT22;10096;51.112;6.776;2022-07-06T15:35:46;25.60;99.90
19868;DHT22;10096;51.112;6.776;2022-07-06T15:38:15;25.30;99.90
19868;DHT22;10096;51.112;6.776;2022-07-06T15:40:42;25.30;99.90
19868;DHT22;10096;51.112;6.776;2022-07-06T15:43:13;25.30;99.90
19868;DHT22;10096;51.112;6.776;2022-07-06T15:45:42;25.30;99.90
19868;DHT22;10096;51.112;6.776;2022-07-06T15:48:09;25.00;99.90
19868;DHT22;10096;51.112;6.776;2022-07-06T15:50:36;25.10;99.90